Private Wetterstation Nrnberg - Katzwang
Wetterdaten: Januar 2011
Datum Temp. A. Feuchte A. Luftdruck Regen Wind Richtung Taupunkt Windchill Windben
01.01.2011 -0,0 C 90 % 1016 hPa 0,0 l/m 2,0 km/h W-NW -1,5 C -0,5 C 3,0 km/h
02.01.2011 -0,2 C 89 % 1018 hPa 0,0 l/m 0,0 km/h W-NW -1,8 C -0,2 C 1,0 km/h
03.01.2011 -1,1 C 87 % 1020 hPa 0,0 l/m 0,0 km/h W-NW -3,0 C -1,1 C 1,0 km/h
04.01.2011 -3,5 C 85 % 1016 hPa 0,0 l/m 1,0 km/h NO -5,7 C -3,5 C 2,0 km/h
05.01.2011 -5,4 C 83 % 1011 hPa 2,0 l/m 9,6 km/h NO -7,9 C -8,9 C 10,6 km/h
06.01.2011 2,6 C 91 % 1003 hPa 0,0 l/m 11,8 km/h O-NO 1,3 C -1,8 C 17,6 km/h
07.01.2011 4,9 C 93 % 1009 hPa 12,4 l/m 6,9 km/h N-NO 3,9 C 4,5 C 7,9 km/h
08.01.2011 6,4 C 94 % 1010 hPa 7,3 l/m 8,6 km/h N-NO 5,6 C 4,9 C 11,3 km/h
09.01.2011 5,5 C 89 % 1012 hPa 4,7 l/m 10,3 km/h N-NO 3,7 C 2,8 C 11,3 km/h
10.01.2011 2,0 C 91 % 1018 hPa 0,0 l/m 1,7 km/h N-NO 0,7 C 1,9 C 2,7 km/h
11.01.2011 2,3 C 92 % 1009 hPa 0,0 l/m 4,6 km/h NO 1,1 C 2,1 C 5,6 km/h
12.01.2011 4,3 C 91 % 1015 hPa 6,7 l/m 9,7 km/h W-NW 2,9 C 1,5 C 10,7 km/h
13.01.2011 10,1 C 94 % 1011 hPa 26,4 l/m 7,4 km/h W-NW 9,1 C 9,4 C 8,4 km/h
14.01.2011 9,7 C 82 % 1014 hPa 2,1 l/m 10,8 km/h W-NW 6,8 C 6,8 C 11,8 km/h
15.01.2011 7,6 C 83 % 1023 hPa 1,0 l/m 4,3 km/h W-NW 4,8 C 6,8 C 5,3 km/h
16.01.2011 3,1 C 88 % 1024 hPa 0,0 l/m 0,7 km/h N 1,2 C 3,1 C 1,7 km/h
17.01.2011 1,7 C 88 % 1023 hPa 0,0 l/m 0,0 km/h O-NO -0,2 C 1,7 C 1,0 km/h
18.01.2011 5,8 C 90 % 1021 hPa 1,0 l/m 1,0 km/h NO 4,1 C 5,8 C 2,0 km/h
19.01.2011 2,3 C 88 % 1023 hPa 10,4 l/m 3,8 km/h W-NW 0,6 C 1,8 C 4,8 km/h
20.01.2011 0,7 C 87 % 1023 hPa 3,1 l/m 2,0 km/h N-NO -1,2 C 0,3 C 3,0 km/h
21.01.2011 -1,4 C 77 % 1028 hPa 0,0 l/m 6,7 km/h N-NO -5,0 C -2,7 C 7,7 km/h
22.01.2011 -3,7 C 79 % 1026 hPa 0,0 l/m 4,1 km/h N-NO -6,9 C -4,6 C 5,1 km/h
23.01.2011 -2,8 C 85 % 1021 hPa 0,0 l/m 0,0 km/h N -5,0 C -2,8 C 1,0 km/h
24.01.2011 0,9 C 92 % 1018 hPa 2,1 l/m 0,0 km/h W-NW -0,3 C 0,9 C 1,0 km/h
25.01.2011 1,0 C 89 % 1008 hPa 1,0 l/m 2,9 km/h W-NW -0,5 C 1,0 C 3,9 km/h
26.01.2011 0,7 C 91 % 1007 hPa 1,0 l/m 0,3 km/h W-NW -0,6 C 0,7 C 1,4 km/h
27.01.2011 -0,9 C 88 % 1014 hPa 0,5 l/m 2,8 km/h O -2,6 C -1,7 C 3,8 km/h
28.01.2011 -1,8 C 80 % 1017 hPa 0,5 l/m 6,0 km/h NO -4,9 C -3,2 C 7,0 km/h
29.01.2011 -5,2 C 77 % 1015 hPa 0,0 l/m 2,4 km/h NO -8,8 C -6,0 C 3,4 km/h
30.01.2011 -6,1 C 83 % 1016 hPa 0,0 l/m 4,3 km/h NO -8,5 C -6,7 C 5,3 km/h
31.01.2011 -4,6 C 84 % 1021 hPa 0,0 l/m 2,8 km/h NO -6,9 C -4,6 C 3,8 km/h
Min-Datum 30.01.11 29.01.11 06.01.11 16 Tage 01.01.11 - 30.01.11 06.01.11 01.01.11
Min-Zeit 06:30 14:10 18:20 - 00:00 - 06:30 05:20 00:00
Minimum -10,3 C 58 % 1002 hPa - 0,0 km/h - -12,3 C -22,1 C 1,0 km/h
Max-Datum 14.01.11 08.01.11 21.01.11 13.01.11 13.01.11 - 13.01.11 14.01.11 13.01.11
Max-Zeit 11:50 03:50 10:00 00:20 19:50 - 21:30 11:50 19:50
Maximum 11,1 C 96 % 1029 hPa 26,4 l/m 46,5 km/h
W-NW
- 9,7 C 11,1 C 51,6 km/h
W-NW
Durchschnitt 1,1 C 87 % 1016 hPa #82,3 l/m 4,1 km/h W-NW -0,8 C 0,2 C 5,3 km/h

Durchschnitt Minimum Temp.-1,5 C
Durchschnitt Maximum Temp.3,7 C